createdAt,value
2023-04-10T00:01:58.210Z,7.80
2023-04-10T00:05:59.928Z,7.60
2023-04-10T00:10:01.706Z,7.60
2023-04-10T00:14:03.422Z,7.50
2023-04-10T00:18:05.291Z,7.40
2023-04-10T00:22:07.041Z,7.20
2023-04-10T00:26:08.822Z,6.80
2023-04-10T00:30:10.900Z,6.90
2023-04-10T00:34:13.991Z,6.80
2023-04-10T00:38:15.723Z,6.50
2023-04-10T00:42:17.528Z,6.40
2023-04-10T00:46:19.642Z,6.40
2023-04-10T00:50:22.104Z,6.40
2023-04-10T00:54:23.909Z,6.40
2023-04-10T00:58:26.793Z,6.30
2023-04-10T01:02:28.657Z,6.20
2023-04-10T01:06:47.184Z,6.20
2023-04-10T01:11:10.383Z,6.20
2023-04-10T01:15:18.281Z,6.20
2023-04-10T01:19:56.252Z,6.10
2023-04-10T01:24:35.608Z,6.10
2023-04-10T01:28:47.071Z,6.00
2023-04-10T01:32:50.998Z,6.10
2023-04-10T01:37:01.592Z,6.10
2023-04-10T01:41:05.039Z,6.20
2023-04-10T01:45:09.198Z,6.10
2023-04-10T01:49:11.713Z,6.10
2023-04-10T01:53:14.584Z,6.10
2023-04-10T01:57:17.119Z,6.00
2023-04-10T02:01:29.108Z,6.10
2023-04-10T02:05:44.572Z,6.10
2023-04-10T02:10:21.381Z,6.10
2023-04-10T02:14:28.389Z,6.10
2023-04-10T02:18:31.514Z,6.10
2023-04-10T02:22:33.640Z,6.10
2023-04-10T02:26:49.424Z,6.10
2023-04-10T02:30:51.539Z,6.10
2023-04-10T02:34:53.325Z,5.80
2023-04-10T02:38:55.006Z,5.70
2023-04-10T02:42:57.099Z,5.90
2023-04-10T02:46:58.864Z,5.90
2023-04-10T02:51:00.627Z,6.00
2023-04-10T02:55:02.636Z,5.70
2023-04-10T02:59:04.319Z,5.50
2023-04-10T03:03:06.257Z,5.70
2023-04-10T03:07:07.977Z,5.70
2023-04-10T03:11:09.655Z,5.60
2023-04-10T03:15:12.825Z,5.50
2023-04-10T03:19:14.428Z,5.70
2023-04-10T03:23:16.433Z,5.70
2023-04-10T03:27:18.129Z,5.80
2023-04-10T03:31:20.600Z,5.80
2023-04-10T03:35:22.541Z,5.90
2023-04-10T03:39:24.651Z,5.90
2023-04-10T03:43:26.344Z,5.90
2023-04-10T03:47:28.084Z,5.80
2023-04-10T03:51:29.961Z,5.80
2023-04-10T03:55:31.921Z,5.70
2023-04-10T03:59:38.816Z,5.70
2023-04-10T04:03:40.876Z,5.60
2023-04-10T04:07:42.876Z,5.60
2023-04-10T04:11:44.634Z,5.60
2023-04-10T04:15:47.774Z,5.50
2023-04-10T04:19:49.437Z,5.40
2023-04-10T04:23:51.229Z,5.40
2023-04-10T04:27:52.911Z,5.30
2023-04-10T04:31:54.629Z,5.20
2023-04-10T04:35:57.859Z,4.70
2023-04-10T04:40:02.764Z,4.50
2023-04-10T04:44:05.703Z,4.60
2023-04-10T04:48:07.377Z,5.00
2023-04-10T04:52:09.301Z,5.10
2023-04-10T04:56:11.117Z,5.00
2023-04-10T05:00:13.201Z,5.10
2023-04-10T05:04:15.176Z,5.20
2023-04-10T05:08:17.025Z,5.30
2023-04-10T05:12:18.716Z,5.30
2023-04-10T05:16:20.488Z,5.30
2023-04-10T05:20:22.272Z,5.40
2023-04-10T05:24:24.294Z,5.30
2023-04-10T05:28:26.167Z,5.20
2023-04-10T05:32:27.869Z,5.30
2023-04-10T05:36:29.672Z,5.60
2023-04-10T05:40:31.434Z,5.70
2023-04-10T05:44:34.721Z,5.70
2023-04-10T05:48:36.466Z,6.00
2023-04-10T05:52:38.213Z,6.00
2023-04-10T05:56:40.085Z,6.20
2023-04-10T06:00:41.772Z,6.30
2023-04-10T06:04:43.522Z,6.60
2023-04-10T06:08:45.417Z,6.80
2023-04-10T06:12:47.066Z,7.00
2023-04-10T06:16:48.912Z,7.30
2023-04-10T06:20:50.708Z,7.60
2023-04-10T06:24:52.414Z,7.90
2023-04-10T06:28:54.507Z,8.20
2023-04-10T06:32:56.452Z,8.50
2023-04-10T06:36:58.148Z,8.80
2023-04-10T06:40:59.823Z,9.00
2023-04-10T06:45:02.246Z,9.30
2023-04-10T06:49:03.913Z,9.60
2023-04-10T06:53:05.704Z,9.70
2023-04-10T06:57:07.388Z,10.10
2023-04-10T07:01:09.166Z,10.10
2023-04-10T07:05:11.294Z,10.40
2023-04-10T07:09:12.977Z,10.50
2023-04-10T07:13:14.845Z,10.60
2023-04-10T07:17:16.521Z,10.70
2023-04-10T07:21:18.205Z,10.70
2023-04-10T07:25:19.912Z,10.70
2023-04-10T07:29:21.613Z,10.70
2023-04-10T07:33:23.320Z,10.90
2023-04-10T07:37:25.277Z,11.00
2023-04-10T07:41:27.214Z,11.10
2023-04-10T07:45:29.067Z,11.30
2023-04-10T07:49:35.484Z,11.30
2023-04-10T07:53:37.360Z,11.40
2023-04-10T07:57:40.622Z,11.50
2023-04-10T08:01:43.819Z,11.70
2023-04-10T08:05:45.597Z,11.80
2023-04-10T08:09:47.237Z,12.10
2023-04-10T08:13:49.336Z,12.10
2023-04-10T08:17:51.198Z,12.40
2023-04-10T08:21:52.912Z,12.60
2023-04-10T08:25:54.640Z,12.70
2023-04-10T08:29:56.705Z,12.60
2023-04-10T08:33:59.143Z,12.70
2023-04-10T08:38:12.291Z,13.10
2023-04-10T08:42:16.105Z,13.20
2023-04-10T08:46:17.810Z,13.20
2023-04-10T08:50:20.202Z,13.40
2023-04-10T08:54:27.582Z,13.40
2023-04-10T08:58:29.521Z,13.40
2023-04-10T09:02:31.577Z,13.50
2023-04-10T09:06:35.995Z,13.30
2023-04-10T09:10:38.237Z,13.40
2023-04-10T09:14:41.414Z,13.60
2023-04-10T09:18:50.688Z,13.60
2023-04-10T09:22:53.268Z,14.00
2023-04-10T09:26:55.709Z,14.20
2023-04-10T09:30:57.471Z,14.20
2023-04-10T09:34:59.373Z,14.30
2023-04-10T09:39:01.258Z,14.40
2023-04-10T09:43:17.756Z,14.70
2023-04-10T09:47:23.319Z,15.10
2023-04-10T09:51:30.252Z,15.20
2023-04-10T09:55:34.254Z,15.20
2023-04-10T09:59:38.806Z,15.10
2023-04-10T10:03:42.099Z,15.00
2023-04-10T10:07:45.412Z,15.20
2023-04-10T10:11:50.136Z,15.30
2023-04-10T10:16:25.625Z,15.30
2023-04-10T10:20:31.221Z,15.40
2023-04-10T10:24:34.336Z,15.50
2023-04-10T10:28:36.707Z,15.50
2023-04-10T10:32:39.814Z,15.90
2023-04-10T10:36:42.511Z,15.80
2023-04-10T10:41:28.545Z,15.90
2023-04-10T10:46:02.273Z,15.90
2023-04-10T10:50:04.383Z,16.00
2023-04-10T10:54:31.352Z,15.80
2023-04-10T10:58:49.363Z,15.80
2023-04-10T11:03:10.660Z,15.90
2023-04-10T11:07:13.510Z,16.10
2023-04-10T11:11:25.832Z,16.00
2023-04-10T11:15:28.549Z,16.00
2023-04-10T11:19:30.702Z,16.10
2023-04-10T11:23:32.822Z,16.20
2023-04-10T11:27:44.703Z,16.10
2023-04-10T11:31:55.535Z,16.30
2023-04-10T11:35:57.999Z,16.10
2023-04-10T11:40:06.836Z,16.20
2023-04-10T11:44:11.251Z,16.30
2023-04-10T11:48:12.902Z,16.40
2023-04-10T11:52:25.809Z,16.30
2023-04-10T11:56:27.747Z,16.40
2023-04-10T12:00:29.897Z,16.40
2023-04-10T12:04:31.829Z,16.50
2023-04-10T12:08:39.352Z,16.40
2023-04-10T12:12:41.920Z,16.40
2023-04-10T12:16:44.769Z,16.10
2023-04-10T12:20:46.491Z,16.20
2023-04-10T12:24:53.468Z,16.40
2023-04-10T12:28:57.617Z,16.60
2023-04-10T12:33:03.808Z,16.70
2023-04-10T12:37:07.430Z,17.10
2023-04-10T12:41:11.338Z,16.90
2023-04-10T12:45:14.525Z,16.90
2023-04-10T12:49:17.364Z,16.80
2023-04-10T12:53:18.923Z,16.60
2023-04-10T12:57:30.810Z,16.40
2023-04-10T13:01:33.710Z,16.70
2023-04-10T13:05:35.636Z,16.60
2023-04-10T13:09:37.431Z,16.80
2023-04-10T13:13:39.087Z,16.70
2023-04-10T13:17:41.662Z,16.70
2023-04-10T13:21:43.461Z,16.60
2023-04-10T13:25:45.401Z,16.60
2023-04-10T13:29:47.299Z,16.60
2023-04-10T13:33:49.077Z,16.60
2023-04-10T13:37:53.192Z,16.80
2023-04-10T13:41:54.903Z,17.10
2023-04-10T13:45:56.905Z,17.10
2023-04-10T13:49:58.678Z,16.70
2023-04-10T13:54:02.909Z,16.60
2023-04-10T13:58:04.955Z,16.60
2023-04-10T14:02:07.254Z,16.60
2023-04-10T14:06:09.879Z,16.50
2023-04-10T14:10:13.801Z,16.40
2023-04-10T14:14:15.694Z,16.20
2023-04-10T14:18:20.465Z,16.10
2023-04-10T14:22:23.245Z,16.10
2023-04-10T14:26:26.689Z,16.10
2023-04-10T14:30:30.944Z,16.10
2023-04-10T14:34:32.860Z,16.30
2023-04-10T14:38:36.641Z,16.20
2023-04-10T14:42:38.379Z,16.20
2023-04-10T14:46:40.118Z,16.40
2023-04-10T14:50:41.932Z,16.30
2023-04-10T14:54:43.608Z,16.40
2023-04-10T14:58:47.104Z,16.20
2023-04-10T15:02:49.034Z,16.30
2023-04-10T15:06:51.823Z,16.10
2023-04-10T15:10:57.882Z,16.10
2023-04-10T15:14:59.632Z,16.10
2023-04-10T15:19:01.326Z,16.10
2023-04-10T15:23:03.118Z,15.90
2023-04-10T15:27:04.910Z,15.80
2023-04-10T15:31:06.955Z,15.70
2023-04-10T15:35:08.911Z,15.70
2023-04-10T15:39:11.196Z,15.60
2023-04-10T15:43:13.349Z,15.50
2023-04-10T15:47:15.013Z,15.50
2023-04-10T15:51:16.774Z,15.40
2023-04-10T15:55:18.863Z,15.40
2023-04-10T15:59:20.625Z,15.40
2023-04-10T16:03:22.536Z,15.40
2023-04-10T16:07:24.601Z,15.30
2023-04-10T16:11:26.316Z,15.30
2023-04-10T16:15:28.527Z,15.20
2023-04-10T16:19:31.387Z,15.20
2023-04-10T16:23:33.004Z,15.20
2023-04-10T16:27:34.728Z,15.30
2023-04-10T16:31:36.453Z,15.20
2023-04-10T16:35:38.149Z,15.20
2023-04-10T16:39:40.039Z,15.10
2023-04-10T16:43:41.673Z,15.10
2023-04-10T16:47:44.624Z,15.10
2023-04-10T16:51:46.362Z,15.10
2023-04-10T16:56:02.826Z,15.10
2023-04-10T17:00:06.846Z,15.10
2023-04-10T17:04:09.361Z,15.20
2023-04-10T17:08:11.072Z,15.10
2023-04-10T17:12:12.793Z,15.20
2023-04-10T17:16:15.450Z,15.20
2023-04-10T17:20:20.266Z,15.20
2023-04-10T17:24:25.473Z,15.20
2023-04-10T17:28:27.140Z,15.10
2023-04-10T17:32:28.941Z,15.10
2023-04-10T17:36:32.136Z,15.10
2023-04-10T17:40:33.857Z,15.10
2023-04-10T17:44:35.526Z,15.10
2023-04-10T17:48:39.076Z,15.20
2023-04-10T17:52:40.862Z,15.20
2023-04-10T17:56:43.091Z,14.80
2023-04-10T18:00:46.444Z,14.60
2023-04-10T18:04:48.084Z,14.40
2023-04-10T18:08:50.319Z,14.20
2023-04-10T18:12:52.801Z,14.20
2023-04-10T18:16:54.601Z,14.10
2023-04-10T18:20:56.350Z,14.10
2023-04-10T18:24:58.064Z,14.00
2023-04-10T18:29:00.870Z,13.90
2023-04-10T18:33:05.630Z,13.90
2023-04-10T18:37:09.838Z,13.80
2023-04-10T18:41:11.904Z,13.80
2023-04-10T18:45:14.176Z,13.70
2023-04-10T18:49:16.116Z,13.60
2023-04-10T18:53:17.815Z,13.70
2023-04-10T18:57:19.506Z,13.60
2023-04-10T19:01:21.377Z,13.60
2023-04-10T19:05:23.157Z,13.70
2023-04-10T19:09:24.912Z,13.70
2023-04-10T19:13:26.843Z,13.70
2023-04-10T19:17:28.649Z,13.70
2023-04-10T19:21:31.588Z,13.70
2023-04-10T19:25:33.651Z,13.70
2023-04-10T19:29:35.523Z,13.70
2023-04-10T19:33:37.179Z,13.70
2023-04-10T19:37:38.979Z,13.40
2023-04-10T19:41:42.266Z,13.40
2023-04-10T19:45:44.214Z,13.20
2023-04-10T19:49:45.964Z,13.00
2023-04-10T19:53:47.719Z,12.80
2023-04-10T19:57:50.050Z,12.40
2023-04-10T20:01:51.914Z,12.30
2023-04-10T20:05:53.691Z,12.10
2023-04-10T20:09:55.440Z,12.10
2023-04-10T20:13:57.611Z,11.90
2023-04-10T20:17:59.453Z,11.90
2023-04-10T20:22:02.363Z,11.60
2023-04-10T20:26:04.406Z,11.40
2023-04-10T20:30:06.885Z,11.50
2023-04-10T20:34:08.597Z,11.30
2023-04-10T20:38:10.476Z,11.30
2023-04-10T20:42:12.250Z,11.20
2023-04-10T20:46:14.098Z,11.00
2023-04-10T20:50:16.110Z,11.10
2023-04-10T20:54:19.079Z,11.00
2023-04-10T20:58:21.104Z,10.60
2023-04-10T21:02:23.070Z,10.70
2023-04-10T21:06:25.131Z,10.80
2023-04-10T21:10:26.986Z,10.70
2023-04-10T21:14:28.716Z,10.60
2023-04-10T21:18:30.677Z,10.60
2023-04-10T21:22:32.917Z,10.50
2023-04-10T21:26:34.732Z,10.50
2023-04-10T21:30:36.372Z,10.40
2023-04-10T21:34:38.121Z,10.20
2023-04-10T21:38:39.784Z,10.10
2023-04-10T21:42:41.525Z,10.10
2023-04-10T21:46:43.235Z,10.10
2023-04-10T21:50:44.923Z,10.00
2023-04-10T21:54:46.609Z,10.00
2023-04-10T21:58:48.324Z,9.90
2023-04-10T22:02:50.884Z,9.60
2023-04-10T22:06:52.719Z,9.70
2023-04-10T22:10:54.869Z,9.80
2023-04-10T22:14:56.573Z,9.80
2023-04-10T22:18:58.699Z,9.60
2023-04-10T22:23:03.368Z,9.60
2023-04-10T22:27:05.050Z,9.60
2023-04-10T22:31:06.961Z,9.50
2023-04-10T22:35:08.790Z,9.50
2023-04-10T22:39:10.554Z,9.40
2023-04-10T22:43:13.174Z,9.50
2023-04-10T22:47:14.864Z,9.40
2023-04-10T22:51:16.797Z,9.30
2023-04-10T22:55:18.621Z,9.40
2023-04-10T22:59:20.658Z,9.50
2023-04-10T23:03:22.384Z,9.40
2023-04-10T23:07:25.694Z,9.50
2023-04-10T23:11:27.378Z,9.40
2023-04-10T23:15:29.102Z,9.50
2023-04-10T23:19:30.909Z,9.50
2023-04-10T23:23:33.035Z,9.60
2023-04-10T23:27:34.713Z,9.40
2023-04-10T23:31:36.437Z,9.50
2023-04-10T23:35:38.209Z,9.40
2023-04-10T23:39:39.902Z,9.40
2023-04-10T23:43:41.597Z,9.40
2023-04-10T23:47:43.345Z,9.40
2023-04-10T23:51:45.426Z,9.30
2023-04-10T23:55:47.146Z,9.40
2023-04-10T23:59:49.368Z,9.40
